Time;durP1;ratioP1;P1;durP2;ratioP2;P2;SDS_P1;SDS_P2;PMS_P1;PMS_P2;Temp;Humidity;BMP_temperature;BMP_pressure;BME280_temperature;BME280_humidity;BME280_pressure;Samples;Min_cycle;Max_cycle;Signal;HPM_P1;HPM_P2
2023/07/16 00:01:33;;;;;;;3.83;1.47;;;;;;;17.82;100.00;100298.59;4958305;28;20063;-76
2023/07/16 00:03:58;;;;;;;4.17;1.57;;;;;;;17.96;100.00;100292.03;4960061;28;20452;-77
2023/07/16 00:06:23;;;;;;;3.00;1.40;;;;;;;17.76;100.00;100285.94;4950688;28;20095;-76
2023/07/16 00:08:49;;;;;;;6.97;1.57;;;;;;;17.67;100.00;100280.81;4942790;28;20023;-76
2023/07/16 00:11:14;;;;;;;3.57;1.73;;;;;;;17.81;100.00;100286.13;4967765;28;20096;-76
2023/07/16 00:13:45;;;;;;;4.23;1.90;;;;;;;17.71;100.00;100273.09;4958994;28;20506;-76
2023/07/16 00:16:11;;;;;;;3.92;1.80;;;;;;;17.72;100.00;100294.50;4967839;28;20400;-76
2023/07/16 00:18:37;;;;;;;4.88;1.67;;;;;;;17.78;100.00;100306.28;4965222;28;20018;-76
2023/07/16 00:21:02;;;;;;;3.40;1.40;;;;;;;17.54;100.00;100316.03;4950461;28;20921;-76
2023/07/16 00:23:27;;;;;;;8.23;1.87;;;;;;;17.61;100.00;100334.88;4966004;28;20037;-76
2023/07/16 00:25:53;;;;;;;4.77;2.43;;;;;;;17.38;100.00;100321.94;4966362;28;20113;-75
2023/07/16 00:28:18;;;;;;;5.63;1.70;;;;;;;17.27;100.00;100335.06;4961132;28;20035;-75
2023/07/16 00:30:43;;;;;;;6.37;1.80;;;;;;;17.10;100.00;100312.34;4937099;28;20035;-75
2023/07/16 00:33:09;;;;;;;3.20;1.80;;;;;;;17.24;100.00;100308.53;4963559;28;20018;-75
2023/07/16 00:35:34;;;;;;;4.40;2.03;;;;;;;17.25;100.00;100287.75;4959685;28;20583;-75
2023/07/16 00:38:02;;;;;;;3.15;1.50;;;;;;;17.10;100.00;100277.28;4959740;28;20038;-75
2023/07/16 00:40:28;;;;;;;4.88;1.77;;;;;;;17.08;100.00;100298.25;4962826;28;20034;-76
2023/07/16 00:42:53;;;;;;;6.40;1.50;;;;;;;16.83;100.00;100274.75;4959818;28;20034;-75
2023/07/16 00:45:19;;;;;;;4.53;2.07;;;;;;;16.76;100.00;100268.50;4964630;28;20027;-75
2023/07/16 00:47:45;;;;;;;4.57;1.97;;;;;;;16.87;100.00;100256.25;4964796;28;20037;-75
2023/07/16 00:50:11;;;;;;;5.63;2.13;;;;;;;16.92;100.00;100252.91;4967517;28;20027;-76
2023/07/16 00:52:38;;;;;;;4.32;1.65;;;;;;;16.81;100.00;100239.09;4958790;28;20058;-76
2023/07/16 00:55:06;;;;;;;;;;;;;;;16.91;100.00;100256.66;4939622;28;20035;-75
2023/07/16 00:57:32;;;;;;;3.20;1.50;;;;;;;16.87;100.00;100226.59;4963822;28;20383;-76
2023/07/16 00:59:58;;;;;;;;;;;;;;;16.90;100.00;100209.97;4958268;28;20043;-75
2023/07/16 01:02:23;;;;;;;2.20;1.40;;;;;;;16.94;100.00;100188.81;4965706;28;19914;-75
2023/07/16 01:04:48;;;;;;;3.93;1.60;;;;;;;16.94;100.00;100186.13;4981964;28;20035;-76
2023/07/16 01:07:17;;;;;;;2.20;1.33;;;;;;;16.93;100.00;100204.16;4967364;28;20023;-75
2023/07/16 01:09:44;;;;;;;5.13;1.65;;;;;;;16.87;100.00;100205.84;4965930;28;20065;-75
2023/07/16 01:12:10;;;;;;;6.90;1.95;;;;;;;16.89;100.00;100202.94;4945874;29;20121;-75
2023/07/16 01:14:36;;;;;;;;;;;;;;;16.81;100.00;100201.34;4943492;28;20666;-75
2023/07/16 01:17:06;;;;;;;3.65;1.83;;;;;;;16.84;100.00;100219.78;4966176;28;19918;-75
2023/07/16 01:19:33;;;;;;;5.88;1.77;;;;;;;16.93;100.00;100243.75;4965898;28;20037;-75
2023/07/16 01:22:04;;;;;;;;;;;;;;;16.86;100.00;100247.34;4949738;28;20118;-76
2023/07/16 01:25:07;;;;;;;8.25;1.77;;;;;;;16.78;100.00;100271.81;4932194;28;19915;-76
2023/07/16 01:27:56;;;;;;;4.35;1.60;;;;;;;16.75;100.00;100268.72;4949450;28;20066;-76
2023/07/16 01:30:23;;;;;;;2.70;1.95;;;;;;;16.83;100.00;100263.97;4966803;28;20031;-76
2023/07/16 01:32:50;;;;;;;4.28;1.85;;;;;;;16.82;100.00;100272.25;4959201;28;20495;-75
2023/07/16 01:35:16;;;;;;;5.57;1.90;;;;;;;16.76;100.00;100278.47;4964829;28;20031;-75
2023/07/16 01:37:41;;;;;;;3.90;1.70;;;;;;;16.76;100.00;100314.31;4949440;28;20085;-76
2023/07/16 01:40:11;;;;;;;4.05;1.83;;;;;;;16.67;100.00;100334.50;4964547;28;20463;-76
2023/07/16 01:42:37;;;;;;;5.30;2.38;;;;;;;16.64;100.00;100340.28;4957292;28;20023;-75
2023/07/16 01:45:02;;;;;;;5.80;1.90;;;;;;;16.57;100.00;100342.19;4964663;28;20031;-75
2023/07/16 01:47:49;;;;;;;5.65;2.10;;;;;;;16.69;100.00;100359.34;4965464;28;20472;-75
2023/07/16 01:50:15;;;;;;;4.75;1.98;;;;;;;16.67;100.00;100335.31;4966802;28;20036;-76
2023/07/16 01:52:40;;;;;;;5.63;2.58;;;;;;;16.70;100.00;100328.69;4966452;28;20023;-75
2023/07/16 01:55:06;;;;;;;5.50;1.77;;;;;;;16.75;100.00;100330.72;4944219;28;20057;-76
2023/07/16 01:57:31;;;;;;;3.80;1.75;;;;;;;16.81;100.00;100325.34;4959814;28;20065;-76
2023/07/16 01:59:57;;;;;;;6.37;2.37;;;;;;;16.82;100.00;100323.47;4969009;28;20918;-75
2023/07/16 02:02:22;;;;;;;5.17;2.13;;;;;;;16.76;100.00;100327.81;4970178;28;20050;-76
2023/07/16 02:04:48;;;;;;;3.07;1.90;;;;;;;16.74;100.00;100323.66;4970426;28;20137;-76
2023/07/16 02:07:13;;;;;;;5.63;2.50;;;;;;;16.76;100.00;100317.03;4953314;28;20476;-76
2023/07/16 02:09:40;;;;;;;4.60;1.63;;;;;;;16.74;100.00;100334.44;4968910;28;20034;-75
2023/07/16 02:12:06;;;;;;;5.32;1.77;;;;;;;16.76;100.00;100317.03;4944763;28;20023;-76
2023/07/16 02:14:31;;;;;;;6.10;1.98;;;;;;;16.79;100.00;100326.59;4969185;28;20034;-75
2023/07/16 02:16:57;;;;;;;3.50;1.50;;;;;;;16.77;100.00;100318.69;4968903;28;20030;-76
2023/07/16 02:19:25;;;;;;;3.33;2.42;;;;;;;16.92;100.00;100323.00;4969008;28;20042;-76
2023/07/16 02:21:51;;;;;;;3.72;1.65;;;;;;;16.83;100.00;100307.09;4968248;28;20146;-76
2023/07/16 02:24:16;;;;;;;5.97;2.53;;;;;;;16.86;100.00;100289.66;4968282;28;20121;-76
2023/07/16 02:26:42;;;;;;;3.00;2.05;;;;;;;16.90;100.00;100284.66;4936995;28;20030;-76
2023/07/16 02:29:10;;;;;;;3.90;1.75;;;;;;;16.94;100.00;100285.88;4945528;28;20098;-75
2023/07/16 02:31:37;;;;;;;3.90;1.50;;;;;;;17.01;100.00;100310.94;4961315;28;20854;-76
2023/07/16 02:34:02;;;;;;;2.57;1.57;;;;;;;16.98;100.00;100311.38;4968226;28;20526;-76
2023/07/16 02:36:28;;;;;;;3.88;1.83;;;;;;;16.95;100.00;100325.28;4968815;28;20039;-76
2023/07/16 02:38:54;;;;;;;3.80;1.70;;;;;;;16.95;100.00;100306.41;4976531;28;20524;-76
2023/07/16 02:41:19;;;;;;;2.43;1.87;;;;;;;16.81;100.00;100298.41;4960457;28;20018;-76
2023/07/16 02:43:46;;;;;;;6.07;1.83;;;;;;;16.76;100.00;100314.31;4968329;28;20078;-76
2023/07/16 02:46:12;;;;;;;7.13;2.13;;;;;;;16.79;100.00;100330.13;4969705;28;20023;-75
2023/07/16 02:48:38;;;;;;;4.67;1.70;;;;;;;16.87;100.00;100339.84;4969812;28;20045;-75
2023/07/16 02:51:03;;;;;;;3.60;1.83;;;;;;;16.86;100.00;100328.22;4968487;28;20027;-76
2023/07/16 02:53:28;;;;;;;2.43;1.80;;;;;;;16.78;100.00;100328.41;4968126;28;20022;-75
2023/07/16 02:55:54;;;;;;;5.63;1.70;;;;;;;16.76;100.00;100325.09;4949280;28;20027;-76
2023/07/16 02:58:19;;;;;;;7.83;1.93;;;;;;;16.91;100.00;100345.63;4968596;28;20038;-76
2023/07/16 03:00:44;;;;;;;4.53;1.70;;;;;;;16.91;100.00;100338.38;4969496;28;20037;-76
2023/07/16 03:03:10;;;;;;;6.53;2.10;;;;;;;16.72;100.00;100339.25;4968112;28;20035;-75
2023/07/16 03:05:35;;;;;;;4.07;1.80;;;;;;;16.73;100.00;100338.19;4965656;28;20023;-75
2023/07/16 03:08:01;;;;;;;4.50;2.47;;;;;;;16.74;100.00;100331.75;4979386;28;20404;-77
2023/07/16 03:10:26;;;;;;;2.37;1.73;;;;;;;16.70;100.00;100335.94;4955797;28;20101;-76
2023/07/16 03:12:52;;;;;;;3.97;2.05;;;;;;;16.72;100.00;100329.28;4964801;28;20055;-75
2023/07/16 03:15:18;;;;;;;10.15;1.75;;;;;;;16.65;100.00;100329.31;4966632;28;20023;-76
2023/07/16 03:17:44;;;;;;;5.87;2.00;;;;;;;16.66;100.00;100322.88;4967887;28;20057;-75
2023/07/16 03:20:13;;;;;;;5.63;1.87;;;;;;;16.76;100.00;100325.09;4967993;28;20022;-76
2023/07/16 03:22:38;;;;;;;7.47;2.10;;;;;;;16.75;100.00;100310.00;4947004;28;20034;-76
2023/07/16 03:25:04;;;;;;;6.50;2.33;;;;;;;16.71;100.00;100302.53;4940788;28;20029;-76
2023/07/16 03:27:30;;;;;;;5.60;1.90;;;;;;;16.72;100.00;100302.34;4951364;28;20082;-76
2023/07/16 03:29:58;;;;;;;3.72;1.85;;;;;;;16.65;100.00;100288.88;4949398;28;20388;-76
2023/07/16 03:32:24;;;;;;;5.13;2.00;;;;;;;16.71;100.00;100295.28;4961975;28;20039;-76
2023/07/16 03:34:49;;;;;;;5.33;2.00;;;;;;;16.72;100.00;100302.34;4949167;28;20285;-75
2023/07/16 03:37:14;;;;;;;4.70;1.97;;;;;;;16.69;100.00;100302.75;4967632;28;20480;-76
2023/07/16 03:39:40;;;;;;;6.13;2.20;;;;;;;16.75;100.00;100293.81;4943708;28;20094;-76
2023/07/16 03:42:05;;;;;;;3.10;2.03;;;;;;;16.75;100.00;100284.91;4966690;28;20035;-76
2023/07/16 03:44:31;;;;;;;5.07;2.20;;;;;;;16.74;100.00;100292.19;4967543;28;20030;-76
2023/07/16 03:46:57;;;;;;;8.00;1.92;;;;;;;16.77;100.00;100297.13;4951659;28;20936;-76
2023/07/16 03:49:23;;;;;;;5.47;2.37;;;;;;;16.69;100.00;100283.88;4963315;28;20030;-76
2023/07/16 03:51:48;;;;;;;2.70;1.63;;;;;;;16.76;100.00;100294.63;4964445;28;20031;-76
2023/07/16 03:54:14;;;;;;;6.20;1.90;;;;;;;16.83;100.00;100298.16;4967105;28;20015;-76
2023/07/16 03:56:39;;;;;;;6.03;2.23;;;;;;;16.87;100.00;100280.53;4967401;28;20043;-76
2023/07/16 03:59:05;;;;;;;8.27;2.33;;;;;;;16.85;100.00;100274.50;4967227;28;20027;-76
2023/07/16 04:01:30;;;;;;;6.30;3.20;;;;;;;16.79;100.00;100273.50;4982990;28;20027;-76
2023/07/16 04:03:55;;;;;;;3.37;1.77;;;;;;;16.84;100.00;100276.38;4966902;28;20408;-75
2023/07/16 04:06:21;;;;;;;4.30;1.80;;;;;;;16.79;100.00;100278.91;4980729;28;20031;-76
2023/07/16 04:08:46;;;;;;;5.13;2.20;;;;;;;16.84;100.00;100268.31;4967829;28;20027;-76
2023/07/16 04:11:11;;;;;;;3.87;2.10;;;;;;;16.83;100.00;100263.97;4967517;28;20918;-76
2023/07/16 04:13:37;;;;;;;6.97;2.00;;;;;;;16.79;100.00;100259.22;4965883;28;20031;-76
2023/07/16 04:16:02;;;;;;;6.07;1.87;;;;;;;16.82;100.00;100254.19;4974807;28;20042;-76
2023/07/16 04:18:28;;;;;;;4.40;2.13;;;;;;;16.76;100.00;100229.94;4958374;28;20030;-76
2023/07/16 04:20:53;;;;;;;3.30;2.27;;;;;;;16.69;100.00;100235.38;4965425;28;20098;-76
2023/07/16 04:23:20;;;;;;;5.30;2.30;;;;;;;16.73;100.00;100241.16;4961469;28;20111;-75
2023/07/16 04:25:46;;;;;;;5.72;2.17;;;;;;;16.81;100.00;100222.06;4947582;28;20050;-76
2023/07/16 04:28:12;;;;;;;3.43;2.47;;;;;;;16.88;100.00;100201.31;4965422;28;20460;-76
2023/07/16 04:30:37;;;;;;;5.88;2.08;;;;;;;16.97;100.00;100210.75;4966272;28;20030;-75
2023/07/16 04:33:03;;;;;;;7.07;2.27;;;;;;;17.05;100.00;100215.09;4965940;28;20030;-76
2023/07/16 04:35:29;;;;;;;6.35;2.35;;;;;;;17.11;100.00;100210.69;4967739;28;20031;-75
2023/07/16 04:37:54;;;;;;;5.70;2.30;;;;;;;17.16;100.00;100208.16;4965939;28;20532;-75
2023/07/16 04:40:19;;;;;;;3.77;1.80;;;;;;;17.12;100.00;100202.38;4961322;28;20039;-76
2023/07/16 04:42:44;;;;;;;5.57;2.57;;;;;;;17.11;100.00;100203.41;4946687;28;20035;-76
2023/07/16 04:45:10;;;;;;;4.07;1.73;;;;;;;17.18;100.00;100211.47;4946609;28;20050;-76
2023/07/16 04:47:35;;;;;;;13.77;2.47;;;;;;;17.20;100.00;100225.56;4959674;28;20015;-76
2023/07/16 04:50:00;;;;;;;8.27;2.27;;;;;;;17.26;100.00;100212.03;4982365;28;20045;-75
2023/07/16 04:52:26;;;;;;;7.80;2.20;;;;;;;17.23;100.00;100203.53;4960239;28;20049;-75
2023/07/16 04:54:52;;;;;;;3.47;1.73;;;;;;;17.28;100.00;100212.63;4965272;28;20039;-76
2023/07/16 04:57:17;;;;;;;7.53;2.63;;;;;;;17.33;100.00;100208.47;4967362;28;20421;-76
2023/07/16 04:59:42;;;;;;;5.87;2.00;;;;;;;17.26;100.00;100208.50;4959344;28;20035;-76
2023/07/16 05:02:08;;;;;;;7.13;2.93;;;;;;;17.26;100.00;100225.50;4950532;28;20594;-76
2023/07/16 05:04:34;;;;;;;5.30;2.00;;;;;;;17.22;100.00;100209.97;4965950;28;20058;-76
2023/07/16 05:07:04;;;;;;;8.27;2.17;;;;;;;17.30;100.00;100209.69;4966032;28;20492;-76
2023/07/16 05:09:29;;;;;;;4.57;2.22;;;;;;;17.50;100.00;100193.34;4965266;28;20503;-76
2023/07/16 05:11:55;;;;;;;8.30;1.98;;;;;;;17.64;100.00;100167.88;4965370;28;20022;-75
2023/07/16 05:14:20;;;;;;;9.37;2.83;;;;;;;17.80;100.00;100154.88;4960301;28;20668;-76
2023/07/16 05:16:46;;;;;;;5.43;2.17;;;;;;;17.95;100.00;100124.81;4944243;28;20027;-76
2023/07/16 05:19:11;;;;;;;6.80;2.47;;;;;;;18.09;100.00;100073.09;4950172;28;20488;-76
2023/07/16 05:21:36;;;;;;;7.77;3.03;;;;;;;18.32;100.00;100055.31;4959922;28;20034;-76
2023/07/16 05:24:02;;;;;;;5.83;2.40;;;;;;;18.44;100.00;100012.13;4964431;28;20157;-76
2023/07/16 05:26:28;;;;;;;12.63;2.58;;;;;;;18.61;100.00;99987.94;4963082;28;20050;-75
2023/07/16 05:28:53;;;;;;;9.30;2.57;;;;;;;18.53;100.00;99954.78;4963238;28;20082;-76
2023/07/16 05:31:18;;;;;;;9.20;2.40;;;;;;;18.55;100.00;99912.13;4959408;28;20035;-76
2023/07/16 05:33:44;;;;;;;5.03;2.47;;;;;;;18.86;100.00;99903.91;4965171;28;20038;-76
2023/07/16 05:36:09;;;;;;;6.80;2.13;;;;;;;19.24;100.00;99857.34;4949429;28;20067;-75
2023/07/16 05:38:34;;;;;;;7.93;2.87;;;;;;;20.07;100.00;99840.69;4965787;28;20074;-76
2023/07/16 05:41:02;;;;;;;5.03;2.93;;;;;;;20.58;100.00;99660.59;4964398;28;20093;-76
2023/07/16 05:43:28;;;;;;;5.50;2.20;;;;;;;20.07;100.00;99642.91;4965307;28;20035;-75
2023/07/16 05:45:53;;;;;;;4.30;2.13;;;;;;;20.23;100.00;99667.22;4957589;28;20042;-76
2023/07/16 05:48:18;;;;;;;6.43;2.13;;;;;;;21.12;100.00;99696.91;4981590;28;20034;-76
2023/07/16 05:50:45;;;;;;;7.43;2.57;;;;;;;21.08;100.00;99577.22;4964019;28;20142;-77
2023/07/16 05:53:10;;;;;;;;;;;;;;;21.28;100.00;99615.38;4964187;28;20041;-76
2023/07/16 05:55:35;;;;;;;3.95;2.10;;;;;;;21.83;100.00;99605.13;4962443;23;19955;-87
2023/07/16 05:58:01;;;;;;;5.13;2.43;;;;;;;21.54;100.00;99417.38;4968986;28;20035;-87
2023/07/16 06:00:26;;;;;;;7.33;2.00;;;;;;;21.72;100.00;99676.78;4970285;28;20126;-87
2023/07/16 06:02:51;;;;;;;8.03;2.30;;;;;;;21.79;100.00;99582.28;4936380;28;20090;-87
2023/07/16 06:05:17;;;;;;;7.07;1.90;;;;;;;22.70;100.00;99635.34;4945954;28;20106;-87
2023/07/16 06:07:43;;;;;;;6.90;1.80;;;;;;;21.46;100.00;99542.75;4955308;28;20066;-88
2023/07/16 06:10:08;;;;;;;2.97;1.50;;;;;;;21.89;100.00;99682.88;4961498;28;20728;-90
2023/07/16 06:12:34;;;;;;;6.32;2.13;;;;;;;22.22;100.00;99525.97;4944420;28;20045;-88
2023/07/16 06:15:00;;;;;;;5.20;1.87;;;;;;;22.24;100.00;99583.59;4935285;28;20031;-88
2023/07/16 06:17:25;;;;;;;3.78;1.65;;;;;;;22.07;100.00;99610.13;4963723;28;20031;-87
2023/07/16 06:19:51;;;;;;;4.53;2.27;;;;;;;22.67;100.00;99637.81;4952901;28;20544;-87
2023/07/16 06:22:17;;;;;;;3.72;1.90;;;;;;;22.44;100.00;99650.78;4931435;29;20040;-91
2023/07/16 06:24:42;;;;;;;5.43;2.03;;;;;;;22.55;100.00;99627.16;4951929;28;20034;-86
2023/07/16 06:27:08;;;;;;;5.40;1.87;;;;;;;22.27;100.00;99477.03;4962390;28;20499;-87
2023/07/16 06:29:33;;;;;;;9.13;2.40;;;;;;;21.56;100.00;99476.81;4953271;28;20357;-87
2023/07/16 06:31:59;;;;;;;4.90;1.97;;;;;;;22.01;100.00;99622.06;4969588;28;20405;-89
2023/07/16 06:34:25;;;;;;;8.03;3.03;;;;;;;22.38;100.00;99553.16;4945071;28;20768;-88
2023/07/16 06:36:50;;;;;;;7.03;2.10;;;;;;;22.06;100.00;99499.81;4964253;28;20366;-89
2023/07/16 06:39:15;;;;;;;5.15;2.42;;;;;;;22.47;99.38;99513.47;4947933;28;20129;-90
2023/07/16 06:41:41;;;;;;;4.60;2.17;;;;;;;21.65;95.81;99215.31;4948872;28;20089;-88
2023/07/16 06:44:07;;;;;;;;;;;;;;;21.85;95.76;99309.56;4957762;28;20023;-85
2023/07/16 06:46:32;;;;;;;8.40;2.50;;;;;;;21.76;92.30;99131.13;4958625;28;20281;-89
2023/07/16 06:48:58;;;;;;;6.17;2.43;;;;;;;22.43;91.83;99313.88;4955035;28;20039;-87
2023/07/16 06:51:23;;;;;;;7.85;2.85;;;;;;;22.30;90.20;99206.53;4944281;28;20031;-88
2023/07/16 06:53:48;;;;;;;9.97;2.87;;;;;;;22.32;86.85;99020.31;4961640;28;20121;-88
2023/07/16 06:56:14;;;;;;;8.43;2.80;;;;;;;22.28;85.85;99019.22;4944085;29;20047;-88
2023/07/16 06:58:39;;;;;;;9.75;2.47;;;;;;;21.80;84.98;98891.28;4962523;28;20031;-86
2023/07/16 07:01:05;;;;;;;9.37;3.17;;;;;;;21.64;83.84;98857.16;4968804;28;20106;-89
2023/07/16 07:03:30;;;;;;;10.60;2.90;;;;;;;22.04;83.12;98945.72;4948698;28;20030;-88
2023/07/16 07:05:56;;;;;;;10.38;2.72;;;;;;;22.11;83.36;99008.72;4956370;28;20122;-87
2023/07/16 07:08:21;;;;;;;8.40;3.17;;;;;;;22.55;81.38;98997.03;4957167;28;20405;-87
2023/07/16 07:10:49;;;;;;;5.47;3.15;;;;;;;22.32;80.88;98937.94;4946137;28;20037;-89
2023/07/16 07:13:14;;;;;;;7.28;2.72;;;;;;;22.38;80.78;98995.78;4943874;28;20023;-87
2023/07/16 07:15:41;;;;;;;5.20;2.70;;;;;;;22.77;80.12;99069.22;4953479;28;20386;-88
2023/07/16 07:18:07;;;;;;;8.57;2.55;;;;;;;22.28;78.15;98784.66;4948384;28;20038;-87
2023/07/16 07:20:32;;;;;;;6.50;3.00;;;;;;;22.43;78.26;98876.13;4948402;28;20027;-88
2023/07/16 07:22:58;;;;;;;8.07;2.83;;;;;;;22.21;77.84;98801.31;4948335;28;20470;-88
2023/07/16 07:25:24;;;;;;;9.95;2.70;;;;;;;21.75;77.81;98769.09;4955896;28;20034;-88
2023/07/16 07:27:49;;;;;;;5.07;2.90;;;;;;;21.96;79.26;98994.38;4948152;28;20106;-88
2023/07/16 07:30:14;;;;;;;5.57;2.83;;;;;;;21.43;77.88;98707.16;4948848;28;20035;-89
2023/07/16 07:32:40;;;;;;;14.43;3.70;;;;;;;21.14;79.39;98793.88;4956861;28;20035;-87
2023/07/16 07:35:06;;;;;;;8.02;3.20;;;;;;;21.14;78.97;98805.56;4956138;28;20323;-87
2023/07/16 07:37:31;;;;;;;8.80;3.17;;;;;;;20.94;80.51;98936.66;4965260;28;20417;-86
2023/07/16 07:39:59;;;;;;;12.65;3.45;;;;;;;21.80;82.17;99271.53;4951726;28;20802;-88
2023/07/16 07:42:24;;;;;;;6.72;3.30;;;;;;;21.90;79.79;99091.41;4972088;28;20031;-86
2023/07/16 07:44:50;;;;;;;7.20;3.10;;;;;;;21.90;80.43;99146.56;4969226;28;20049;-87
2023/07/16 07:47:15;;;;;;;5.47;2.87;;;;;;;21.73;78.53;98911.66;4965202;28;20019;-88
2023/07/16 07:49:41;;;;;;;7.63;3.07;;;;;;;21.71;79.91;99074.91;4964962;28;20035;-87
2023/07/16 07:52:07;;;;;;;8.23;3.72;;;;;;;22.00;78.56;99033.50;4951788;28;20038;-87
2023/07/16 07:54:33;;;;;;;6.82;3.17;;;;;;;21.87;78.33;99003.13;4951309;28;20059;-87
2023/07/16 07:57:01;;;;;;;5.78;2.90;;;;;;;21.03;81.11;99048.94;4947350;28;20409;-87
2023/07/16 07:59:27;;;;;;;10.55;2.70;;;;;;;21.42;80.24;99099.97;4972381;28;20031;-88
2023/07/16 08:01:52;;;;;;;9.67;3.83;;;;;;;21.74;79.96;99165.88;4957608;28;20379;-86
2023/07/16 08:04:17;;;;;;;6.03;2.90;;;;;;;21.73;79.54;99134.38;4953993;28;20560;-87
2023/07/16 08:06:43;;;;;;;4.83;3.07;;;;;;;21.34;78.66;98918.63;4954859;28;20027;-88
2023/07/16 08:09:08;;;;;;;8.73;3.23;;;;;;;21.73;79.83;99154.22;4956146;28;20129;-87
2023/07/16 08:11:34;;;;;;;4.40;2.93;;;;;;;21.68;80.46;99184.06;4957407;28;20266;-88
2023/07/16 08:13:59;;;;;;;7.90;2.70;;;;;;;21.35;81.94;99234.28;4959415;28;20039;-88
2023/07/16 08:16:24;;;;;;;6.87;2.70;;;;;;;21.54;81.64;99297.03;4945691;29;20039;-85
2023/07/16 08:18:50;;;;;;;5.80;2.77;;;;;;;21.92;81.33;99337.28;4995311;28;20037;-86
2023/07/16 08:21:19;;;;;;;5.50;3.23;;;;;;;20.96;82.73;99156.13;4961525;28;20097;-85
2023/07/16 08:23:51;;;;;;;4.82;3.20;;;;;;;21.13;83.30;99229.13;4968371;28;20042;-86
2023/07/16 08:26:17;;;;;;;5.28;2.40;;;;;;;21.22;83.12;99252.75;4951321;28;20042;-85
2023/07/16 08:28:42;;;;;;;5.63;3.33;;;;;;;22.40;81.92;99483.00;4946073;28;20015;-87
2023/07/16 08:31:08;;;;;;;7.47;3.07;;;;;;;22.29;78.40;99118.72;4951364;28;20122;-84
2023/07/16 08:33:33;;;;;;;9.83;3.60;;;;;;;22.46;77.10;99066.69;4947134;28;20298;-86
2023/07/16 08:35:58;;;;;;;5.43;2.53;;;;;;;22.54;75.35;99028.03;4957724;28;20409;-85
2023/07/16 08:38:23;;;;;;;8.83;3.03;;;;;;;22.28;75.54;98902.34;4946240;28;20027;-86
2023/07/16 08:40:49;;;;;;;9.00;3.03;;;;;;;21.58;76.91;98880.00;4958533;28;20129;-87
2023/07/16 08:43:16;;;;;;;6.25;2.60;;;;;;;22.00;77.67;99098.72;4956394;28;20077;-85
2023/07/16 08:45:44;;;;;;;13.88;4.15;;;;;;;21.81;76.08;98911.91;4962909;28;20093;-87
2023/07/16 08:48:10;;;;;;;4.50;2.28;;;;;;;21.84;77.41;99074.31;4951103;28;20408;-87
2023/07/16 08:50:36;;;;;;;;;;;;;;;21.48;77.35;98984.03;4966450;28;20035;-87
2023/07/16 08:53:05;;;;;;;7.65;2.25;;;;;;;21.24;77.34;98918.69;4961431;28;20272;-87
2023/07/16 08:55:30;;;;;;;14.35;3.05;;;;;;;20.92;78.36;98965.94;4952979;28;20038;-86
2023/07/16 08:57:57;;;;;;;7.53;2.38;;;;;;;21.09;78.65;99063.31;4940341;28;20089;-87
2023/07/16 09:00:25;;;;;;;5.15;2.58;;;;;;;21.63;76.37;99037.44;4948061;28;20038;-86
2023/07/16 09:02:52;;;;;;;9.05;2.50;;;;;;;22.78;74.66;99163.34;4953484;28;20054;-86
2023/07/16 09:05:22;;;;;;;9.30;2.72;;;;;;;23.31;71.90;99004.78;4954010;28;20932;-86
2023/07/16 09:07:47;;;;;;;6.85;2.22;;;;;;;22.63;71.12;98758.19;4943479;28;20030;-86
2023/07/16 09:10:12;;;;;;;5.35;2.70;;;;;;;21.54;72.47;98632.69;4969813;28;20023;-86
2023/07/16 09:12:47;;;;;;;8.10;2.87;;;;;;;21.80;72.60;98796.22;4953641;28;20370;-86
2023/07/16 09:15:18;;;;;;;4.47;2.42;;;;;;;22.81;73.56;99176.38;4958411;28;20070;-85
2023/07/16 09:17:50;;;;;;;16.17;2.92;;;;;;;22.55;71.71;98871.13;4942243;28;20560;-85
2023/07/16 09:20:16;;;;;;;4.82;2.70;;;;;;;23.11;69.59;98837.88;4962695;28;20047;-86
2023/07/16 09:22:42;;;;;;;7.47;2.72;;;;;;;22.08;70.83;98739.47;4944820;28;20797;-87
2023/07/16 09:25:08;;;;;;;5.13;2.70;;;;;;;21.59;72.49;98779.25;4937969;28;20059;-84
2023/07/16 09:27:33;;;;;;;5.78;2.97;;;;;;;22.23;72.38;98989.38;4953625;28;20023;-88
2023/07/16 09:30:02;;;;;;;7.65;2.45;;;;;;;22.06;70.96;98804.94;4961861;28;20088;-87
2023/07/16 09:32:40;;;;;;;6.25;1.90;;;;;;;23.14;69.78;98978.84;4955527;28;20023;-86
2023/07/16 09:35:13;;;;;;;7.38;2.40;;;;;;;22.94;69.78;98914.53;4966315;28;20417;-86
2023/07/16 09:37:39;;;;;;;10.02;2.50;;;;;;;23.63;69.86;99132.19;4931288;29;20036;-85
2023/07/16 09:40:08;;;;;;;12.43;2.90;;;;;;;23.13;70.10;98952.72;4957911;28;20016;-86
2023/07/16 09:42:37;;;;;;;5.88;3.20;;;;;;;23.39;70.14;99074.97;4964795;28;20065;-87
2023/07/16 09:45:03;;;;;;;7.00;3.15;;;;;;;22.79;68.50;98720.72;4945610;28;20029;-85
2023/07/16 09:47:28;;;;;;;7.13;2.92;;;;;;;21.89;68.58;98513.88;4953552;28;20031;-87
2023/07/16 09:49:54;;;;;;;4.90;2.47;;;;;;;22.73;70.32;99024.63;4945578;28;20034;-86
2023/07/16 09:52:20;;;;;;;3.30;1.90;;;;;;;23.10;67.84;98817.19;4965691;28;20035;-87
2023/07/16 09:54:46;;;;;;;;;;;;;;;23.59;67.98;98943.19;4935274;28;20035;-87
2023/07/16 09:57:13;;;;;;;6.72;2.35;;;;;;;23.43;69.49;99111.41;4962954;28;19918;-87
2023/07/16 09:59:39;;;;;;;8.75;2.30;;;;;;;23.16;69.14;98982.09;4949630;28;20053;-87
2023/07/16 10:02:07;;;;;;;5.20;3.22;;;;;;;23.89;68.21;99127.31;4952842;28;20066;-87
2023/07/16 10:04:39;;;;;;;6.15;2.35;;;;;;;23.68;67.67;98973.31;4945439;28;20031;-86
2023/07/16 10:07:05;;;;;;;5.65;2.47;;;;;;;22.82;69.03;98804.47;4945185;28;20465;-87
2023/07/16 10:09:52;;;;;;;6.10;1.80;;;;;;;22.34;70.62;98878.66;4967150;28;20101;-86
2023/07/16 10:12:19;;;;;;;4.85;2.95;;;;;;;22.41;72.41;99147.50;4927369;29;20050;-86
2023/07/16 10:14:47;;;;;;;11.75;3.28;;;;;;;22.31;71.08;98926.25;4942881;28;20034;-87
2023/07/16 10:17:14;;;;;;;6.50;2.53;;;;;;;22.56;74.48;99367.69;4950170;29;20081;-87
2023/07/16 10:20:00;;;;;;;6.55;2.67;;;;;;;23.80;71.81;99390.63;4969067;28;20027;-87
2023/07/16 10:22:43;;;;;;;7.50;2.50;;;;;;;24.12;71.12;99370.22;4972477;28;20405;-87
2023/07/16 10:25:17;;;;;;;7.47;2.80;;;;;;;23.38;71.87;99195.88;4972862;28;20038;-87
2023/07/16 10:27:45;;;;;;;6.53;3.13;;;;;;;22.63;74.11;99234.94;4959037;28;20081;-87
2023/07/16 10:30:10;;;;;;;5.18;3.13;;;;;;;21.77;75.90;99151.75;4961228;28;20019;-88
2023/07/16 10:32:36;;;;;;;6.50;3.15;;;;;;;21.52;79.01;99396.97;4955603;28;20038;-87
2023/07/16 10:35:04;;;;;;;3.92;2.55;;;;;;;21.46;77.21;99225.91;4936290;28;20031;-87
2023/07/16 10:37:29;;;;;;;7.05;2.72;;;;;;;21.48;77.72;99280.75;4967158;28;20507;-86
2023/07/16 10:39:56;;;;;;;8.87;2.90;;;;;;;21.32;77.52;99192.22;4968876;28;20027;-87
2023/07/16 10:42:24;;;;;;;6.03;3.00;;;;;;;22.58;76.43;99449.84;4949426;28;20556;-86
2023/07/16 10:44:56;;;;;;;10.95;2.97;;;;;;;23.64;74.18;99517.09;4954922;28;20030;-86
2023/07/16 10:47:33;;;;;;;4.70;2.78;;;;;;;22.57;73.58;99124.56;4949672;29;20086;-86
2023/07/16 10:49:59;;;;;;;4.70;2.85;;;;;;;21.88;76.05;99205.78;4946387;28;20101;-86
2023/07/16 10:52:26;;;;;;;8.93;2.83;;;;;;;21.51;75.00;99005.19;4946907;29;20023;-87
2023/07/16 10:54:54;;;;;;;6.85;3.13;;;;;;;21.83;75.53;99196.84;4953217;28;20050;-87
2023/07/16 10:57:20;;;;;;;9.98;3.22;;;;;;;21.89;75.87;99221.00;4947201;28;20030;-86
2023/07/16 10:59:47;;;;;;;5.53;2.90;;;;;;;22.27;75.04;99232.38;4946948;28;20035;-87
2023/07/16 11:02:14;;;;;;;5.30;2.85;;;;;;;21.72;75.45;99158.00;4972400;28;20026;-86
2023/07/16 11:04:41;;;;;;;5.65;3.20;;;;;;;21.31;77.74;99233.22;4946260;28;20112;-86
2023/07/16 11:07:11;;;;;;;5.05;2.97;;;;;;;21.16;77.42;99166.16;4977421;28;20018;-86
2023/07/16 11:09:45;;;;;;;7.75;3.03;;;;;;;21.10;77.50;99192.47;4938775;28;20043;-86
2023/07/16 11:12:15;;;;;;;7.78;3.60;;;;;;;22.33;76.09;99409.88;4957318;28;20031;-86
2023/07/16 11:14:45;;;;;;;5.50;3.10;;;;;;;23.60;72.95;99449.56;4956399;28;20471;-86
2023/07/16 11:17:11;;;;;;;6.93;2.60;;;;;;;23.57;71.49;99245.00;4943040;28;20035;-86
2023/07/16 11:19:37;;;;;;;7.28;2.80;;;;;;;22.66;71.46;99033.09;4941318;28;20019;-86
2023/07/16 11:22:06;;;;;;;12.00;2.90;;;;;;;22.46;71.93;99069.44;4962323;28;20292;-86
2023/07/16 11:24:42;;;;;;;5.00;2.83;;;;;;;22.93;70.19;99045.41;4958283;28;20466;-87